Time;durP1;ratioP1;P1;durP2;ratioP2;P2;SDS_P1;SDS_P2;PMS_P1;PMS_P2;Temp;Humidity;BMP_temperature;BMP_pressure;BME280_temperature;BME280_humidity;BME280_pressure;Samples;Min_cycle;Max_cycle;Signal;HPM_P1;HPM_P2
2021/11/30 00:01:44;;;;;;;10.20;4.88;;;;;;;;;;5092992;28;20101;-69
2021/11/30 00:04:11;;;;;;;8.95;4.30;;;;;;;;;;5093549;28;20074;-69
2021/11/30 00:06:37;;;;;;;13.45;4.53;;;;;;;;;;5092511;28;20028;-69
2021/11/30 00:09:10;;;;;;;15.40;7.43;;;;;;;;;;5093274;28;20024;-69
2021/11/30 00:11:36;;;;;;;12.43;5.78;;;;;;;;;;5093628;28;20383;-69
2021/11/30 00:14:03;;;;;;;9.63;5.10;;;;;;;;;;5093346;28;20382;-69
2021/11/30 00:16:29;;;;;;;10.52;4.75;;;;;;;;;;5092934;28;20099;-69
2021/11/30 00:18:55;;;;;;;10.32;5.03;;;;;;;;;;5091907;28;20021;-69
2021/11/30 00:21:21;;;;;;;8.68;4.40;;;;;;;;;;5093038;28;20093;-69
2021/11/30 00:23:48;;;;;;;6.18;3.63;;;;;;;;;;5094327;28;20047;-69
2021/11/30 00:26:14;;;;;;;7.68;3.42;;;;;;;;;;5097283;28;20080;-69
2021/11/30 00:28:40;;;;;;;5.88;3.20;;;;;;;;;;5097225;28;20032;-69
2021/11/30 00:31:06;;;;;;;5.65;2.95;;;;;;;;;;5096966;28;20086;-68
2021/11/30 00:33:32;;;;;;;7.28;2.80;;;;;;;;;;5097169;28;20507;-69
2021/11/30 00:35:58;;;;;;;6.05;2.25;;;;;;;;;;5097191;28;20017;-69
2021/11/30 00:38:26;;;;;;;5.78;2.30;;;;;;;;;;5095547;28;20051;-68
2021/11/30 00:40:53;;;;;;;8.30;2.80;;;;;;;;;;5097168;28;20419;-68
2021/11/30 00:43:25;;;;;;;7.00;2.63;;;;;;;;;;5096759;28;20032;-69
2021/11/30 00:46:01;;;;;;;6.05;2.72;;;;;;;;;;5096959;28;20046;-68
2021/11/30 00:48:31;;;;;;;4.53;2.90;;;;;;;;;;5096879;28;20111;-68
2021/11/30 00:50:59;;;;;;;6.97;3.22;;;;;;;;;;5096445;28;20028;-69
2021/11/30 00:53:25;;;;;;;10.02;5.07;;;;;;;;;;5097003;28;20025;-68
2021/11/30 00:55:51;;;;;;;12.05;4.53;;;;;;;;;;5095398;28;20114;-68
2021/11/30 00:58:17;;;;;;;11.80;4.80;;;;;;;;;;5096271;28;20097;-68
2021/11/30 01:00:44;;;;;;;10.05;3.75;;;;;;;;;;5096651;28;20027;-68
2021/11/30 01:03:10;;;;;;;6.10;2.70;;;;;;;;;;5096338;28;20500;-68
2021/11/30 01:05:37;;;;;;;10.07;3.80;;;;;;;;;;5094876;28;20032;-69
2021/11/30 01:08:04;;;;;;;8.85;3.85;;;;;;;;;;5095148;28;20035;-69
2021/11/30 01:10:31;;;;;;;7.35;3.15;;;;;;;;;;5096426;28;20055;-68
2021/11/30 01:12:57;;;;;;;9.13;2.97;;;;;;;;;;5094726;28;20388;-69
2021/11/30 01:15:23;;;;;;;5.45;2.20;;;;;;;;;;5096295;28;20099;-68
2021/11/30 01:17:49;;;;;;;5.47;1.95;;;;;;;;;;5096514;28;20136;-69
2021/11/30 01:20:16;;;;;;;3.95;1.60;;;;;;;;;;5095778;28;20020;-69
2021/11/30 01:22:43;;;;;;;1.23;0.50;;;;;;;;;;5096106;28;20032;-68
2021/11/30 01:25:09;;;;;;;0.63;0.50;;;;;;;;;;5096057;28;20020;-69
2021/11/30 01:27:36;;;;;;;1.83;0.75;;;;;;;;;;5095627;28;20028;-68
2021/11/30 01:30:02;;;;;;;0.50;0.40;;;;;;;;;;5095931;28;20047;-68
2021/11/30 01:32:28;;;;;;;0.50;0.40;;;;;;;;;;5096223;28;20020;-69
2021/11/30 01:34:54;;;;;;;1.20;0.50;;;;;;;;;;5095120;28;20081;-69
2021/11/30 01:37:21;;;;;;;1.52;0.60;;;;;;;;;;5095919;28;20389;-69
2021/11/30 01:39:47;;;;;;;1.98;0.65;;;;;;;;;;5095403;28;20028;-68
2021/11/30 01:42:14;;;;;;;1.92;0.68;;;;;;;;;;5095819;28;20032;-67
2021/11/30 01:49:55;;;;;;;0.80;0.40;;;;;;;;;;5095712;28;20047;-69
2021/11/30 01:52:22;;;;;;;0.80;0.40;;;;;;;;;;5095568;28;20024;-69
2021/11/30 01:54:50;;;;;;;0.40;0.40;;;;;;;;;;5095322;28;20488;-69
2021/11/30 01:57:17;;;;;;;0.55;0.50;;;;;;;;;;5095453;28;20027;-68
2021/11/30 01:59:44;;;;;;;0.75;0.52;;;;;;;;;;5094191;28;20028;-68
2021/11/30 02:02:11;;;;;;;0.57;0.30;;;;;;;;;;5094711;28;20051;-68
2021/11/30 02:04:37;;;;;;;0.50;0.50;;;;;;;;;;5095352;28;20071;-69
2021/11/30 02:07:04;;;;;;;0.40;0.40;;;;;;;;;;5095283;28;20475;-69
2021/11/30 02:09:30;;;;;;;1.08;0.60;;;;;;;;;;5094903;28;20055;-69
2021/11/30 02:11:56;;;;;;;0.90;0.63;;;;;;;;;;5095323;28;20120;-69
2021/11/30 02:14:23;;;;;;;0.75;0.45;;;;;;;;;;5095452;28;20384;-69
2021/11/30 02:16:50;;;;;;;3.70;0.80;;;;;;;;;;5094750;28;20028;-69
2021/11/30 02:19:16;;;;;;;1.15;0.60;;;;;;;;;;5095067;28;20387;-68
2021/11/30 02:21:42;;;;;;;1.35;0.60;;;;;;;;;;5094962;28;20110;-68
2021/11/30 02:24:10;;;;;;;5.40;0.60;;;;;;;;;;5094722;28;20427;-69
2021/11/30 02:26:36;;;;;;;0.40;0.40;;;;;;;;;;5094940;28;20024;-69
2021/11/30 02:29:06;;;;;;;0.75;0.60;;;;;;;;;;5094518;28;20035;-69
2021/11/30 02:31:35;;;;;;;1.63;0.47;;;;;;;;;;5094949;28;20017;-69
2021/11/30 02:34:03;;;;;;;0.38;0.38;;;;;;;;;;5094872;28;20080;-68
2021/11/30 02:36:37;;;;;;;0.80;0.40;;;;;;;;;;5094439;28;20020;-69
2021/11/30 02:39:04;;;;;;;2.20;0.73;;;;;;;;;;5094797;28;20028;-69
2021/11/30 02:41:30;;;;;;;0.73;0.50;;;;;;;;;;5095075;28;20379;-69
2021/11/30 02:43:57;;;;;;;1.00;0.52;;;;;;;;;;5094189;28;20035;-69
2021/11/30 02:46:37;;;;;;;1.33;0.50;;;;;;;;;;5093727;28;20021;-69
2021/11/30 02:49:04;;;;;;;0.52;0.43;;;;;;;;;;5094488;28;20370;-69
2021/11/30 02:51:32;;;;;;;0.88;0.60;;;;;;;;;;5094102;28;20020;-69
2021/11/30 02:54:01;;;;;;;0.40;0.40;;;;;;;;;;5094546;28;20044;-68
2021/11/30 02:56:30;;;;;;;0.35;0.35;;;;;;;;;;5094380;28;20047;-69
2021/11/30 02:58:56;;;;;;;0.40;0.40;;;;;;;;;;5093932;28;20024;-68
2021/11/30 03:01:23;;;;;;;0.30;0.30;;;;;;;;;;5093985;28;20055;-68
2021/11/30 03:03:49;;;;;;;2.30;0.40;;;;;;;;;;5094308;28;20036;-69
2021/11/30 03:06:15;;;;;;;1.27;0.60;;;;;;;;;;5093937;28;20054;-69
2021/11/30 03:08:42;;;;;;;0.65;0.50;;;;;;;;;;5094246;28;20024;-69
2021/11/30 03:11:09;;;;;;;0.30;0.30;;;;;;;;;;5093647;28;20433;-69
2021/11/30 03:13:36;;;;;;;1.27;0.60;;;;;;;;;;5094017;28;20024;-68
2021/11/30 03:16:03;;;;;;;0.85;0.63;;;;;;;;;;5094028;28;20048;-69
2021/11/30 03:18:30;;;;;;;0.98;0.68;;;;;;;;;;5093699;28;20020;-68
2021/11/30 03:20:57;;;;;;;1.38;0.70;;;;;;;;;;5094060;28;20520;-69
2021/11/30 03:23:23;;;;;;;2.17;1.05;;;;;;;;;;5093883;28;20036;-68
2021/11/30 03:25:49;;;;;;;1.40;0.60;;;;;;;;;;5093613;28;20028;-69
2021/11/30 03:28:15;;;;;;;1.77;0.80;;;;;;;;;;5093838;28;20475;-69
2021/11/30 03:30:42;;;;;;;0.93;0.75;;;;;;;;;;5093777;28;20028;-69
2021/11/30 03:35:54;;;;;;;1.23;0.70;;;;;;;;;;5093679;28;20047;-69
2021/11/30 03:38:20;;;;;;;1.15;0.80;;;;;;;;;;5093628;28;20024;-69
2021/11/30 03:40:46;;;;;;;1.38;0.98;;;;;;;;;;5093363;28;20030;-68
2021/11/30 03:43:13;;;;;;;2.65;1.38;;;;;;;;;;5093573;28;20085;-69
2021/11/30 03:45:39;;;;;;;2.60;1.27;;;;;;;;;;5093669;28;20491;-68
2021/11/30 03:48:05;;;;;;;2.33;1.23;;;;;;;;;;5093262;28;20028;-68
2021/11/30 03:50:32;;;;;;;1.92;1.25;;;;;;;;;;5093790;28;20042;-69
2021/11/30 03:52:58;;;;;;;2.00;1.20;;;;;;;;;;5093654;28;20028;-69
2021/11/30 03:55:24;;;;;;;3.05;1.30;;;;;;;;;;5093221;28;20464;-68
2021/11/30 03:57:50;;;;;;;2.92;1.50;;;;;;;;;;5093454;28;20031;-69
2021/11/30 04:00:16;;;;;;;2.65;1.23;;;;;;;;;;5092788;28;20020;-68
2021/11/30 04:02:43;;;;;;;2.35;1.63;;;;;;;;;;5092726;28;20055;-68
2021/11/30 04:05:09;;;;;;;3.20;1.70;;;;;;;;;;5093448;28;20544;-69
2021/11/30 04:07:35;;;;;;;6.55;2.20;;;;;;;;;;5093032;28;20020;-69
2021/11/30 04:10:03;;;;;;;2.65;1.33;;;;;;;;;;5093486;28;20021;-69
2021/11/30 04:12:29;;;;;;;2.58;1.55;;;;;;;;;;5093581;28;20150;-68
2021/11/30 04:14:55;;;;;;;3.03;1.65;;;;;;;;;;5092923;28;20031;-69
2021/11/30 04:17:22;;;;;;;3.28;1.70;;;;;;;;;;5093521;28;20031;-68
2021/11/30 04:19:48;;;;;;;2.80;1.70;;;;;;;;;;5093534;28;20027;-69
2021/11/30 04:22:14;;;;;;;2.40;1.63;;;;;;;;;;5092747;28;20047;-69
2021/11/30 04:24:41;;;;;;;4.13;1.60;;;;;;;;;;5093231;28;20012;-69
2021/11/30 04:27:07;;;;;;;3.75;1.85;;;;;;;;;;5093232;28;20036;-69
2021/11/30 04:29:37;;;;;;;3.88;1.45;;;;;;;;;;5092984;28;20020;-69
2021/11/30 04:32:04;;;;;;;1.95;1.33;;;;;;;;;;5093133;28;20024;-69
2021/11/30 04:34:30;;;;;;;3.20;1.70;;;;;;;;;;5091865;28;20045;-68
2021/11/30 04:36:56;;;;;;;3.92;1.77;;;;;;;;;;5092624;28;20023;-68
2021/11/30 04:39:23;;;;;;;2.75;1.60;;;;;;;;;;5093080;28;20020;-69
2021/11/30 04:41:49;;;;;;;2.42;1.60;;;;;;;;;;5093413;28;20024;-69
2021/11/30 04:44:16;;;;;;;3.30;1.80;;;;;;;;;;5092797;28;20058;-68
2021/11/30 04:46:54;;;;;;;4.78;2.60;;;;;;;;;;5093079;28;20456;-68
2021/11/30 04:51:58;;;;;;;2.78;1.73;;;;;;;;;;5093062;28;20052;-69
2021/11/30 04:54:25;;;;;;;3.83;2.00;;;;;;;;;;5093024;28;20096;-69
2021/11/30 04:56:51;;;;;;;5.88;2.17;;;;;;;;;;5092586;28;20031;-69
2021/11/30 04:59:19;;;;;;;2.55;1.67;;;;;;;;;;5092349;28;20448;-69
2021/11/30 05:01:45;;;;;;;3.75;2.00;;;;;;;;;;5092162;28;20075;-68
2021/11/30 05:04:11;;;;;;;5.32;2.28;;;;;;;;;;5092485;28;20031;-69
2021/11/30 05:06:38;;;;;;;3.55;1.90;;;;;;;;;;5093047;28;20464;-69
2021/11/30 05:09:04;;;;;;;3.95;1.90;;;;;;;;;;5093091;28;20032;-69
2021/11/30 05:11:31;;;;;;;4.30;1.90;;;;;;;;;;5095624;28;20043;-68
2021/11/30 05:13:57;;;;;;;4.18;1.92;;;;;;;;;;5096258;28;20032;-69
2021/11/30 05:16:23;;;;;;;2.40;1.80;;;;;;;;;;5096476;28;20024;-69
2021/11/30 05:18:49;;;;;;;4.15;1.98;;;;;;;;;;5094660;28;20529;-69
2021/11/30 05:21:15;;;;;;;3.95;2.00;;;;;;;;;;5096212;28;20468;-68
2021/11/30 05:23:41;;;;;;;3.42;1.88;;;;;;;;;;5096190;28;20101;-69
2021/11/30 05:26:08;;;;;;;5.43;2.40;;;;;;;;;;5096101;28;20020;-69
2021/11/30 05:28:35;;;;;;;5.38;2.45;;;;;;;;;;5096202;28;20095;-69
2021/11/30 05:31:02;;;;;;;3.88;2.25;;;;;;;;;;5094864;28;20119;-69
2021/11/30 05:33:28;;;;;;;3.97;2.40;;;;;;;;;;5095756;28;20077;-68
2021/11/30 05:35:55;;;;;;;4.82;2.70;;;;;;;;;;5096288;28;20020;-68
2021/11/30 05:38:21;;;;;;;3.55;2.00;;;;;;;;;;5096298;28;20020;-69
2021/11/30 05:40:48;;;;;;;4.65;2.13;;;;;;;;;;5095613;28;20081;-68
2021/11/30 05:43:14;;;;;;;4.88;2.65;;;;;;;;;;5095831;28;20156;-69
2021/11/30 05:45:40;;;;;;;7.55;3.45;;;;;;;;;;5095527;28;20020;-69
2021/11/30 05:48:06;;;;;;;8.73;3.25;;;;;;;;;;5096011;28;20032;-69
2021/11/30 05:50:33;;;;;;;8.52;2.80;;;;;;;;;;5096187;28;20456;-69
2021/11/30 05:52:59;;;;;;;7.85;3.28;;;;;;;;;;5095422;28;20421;-69
2021/11/30 05:55:25;;;;;;;5.82;2.88;;;;;;;;;;5095861;28;20020;-69
2021/11/30 05:57:52;;;;;;;5.40;3.05;;;;;;;;;;5095772;28;20103;-69
2021/11/30 06:00:18;;;;;;;5.32;2.63;;;;;;;;;;5095237;28;20592;-69
2021/11/30 06:02:57;;;;;;;5.47;2.67;;;;;;;;;;5095362;28;20056;-68
2021/11/30 06:05:24;;;;;;;8.52;4.05;;;;;;;;;;5095695;28;20020;-69
2021/11/30 06:07:51;;;;;;;9.65;4.93;;;;;;;;;;5094987;28;20142;-69
2021/11/30 06:10:17;;;;;;;9.27;4.28;;;;;;;;;;5095283;28;20032;-69
2021/11/30 06:12:43;;;;;;;7.53;4.05;;;;;;;;;;5095249;28;20535;-69
2021/11/30 06:15:10;;;;;;;7.70;3.92;;;;;;;;;;5094786;28;20024;-69
2021/11/30 06:17:36;;;;;;;10.90;4.75;;;;;;;;;;5095441;28;20494;-69
2021/11/30 06:20:03;;;;;;;5.88;3.53;;;;;;;;;;5095311;28;20020;-69
2021/11/30 06:22:29;;;;;;;11.20;6.40;;;;;;;;;;5094566;28;20056;-70
2021/11/30 06:24:56;;;;;;;20.65;8.05;;;;;;;;;;5095038;28;20024;-70
2021/11/30 06:27:22;;;;;;;12.32;7.20;;;;;;;;;;5094874;28;20091;-68
2021/11/30 06:29:48;;;;;;;9.15;5.25;;;;;;;;;;5094642;28;20016;-69
2021/11/30 06:32:14;;;;;;;7.75;4.78;;;;;;;;;;5094905;28;20020;-69
2021/11/30 06:34:41;;;;;;;9.63;5.47;;;;;;;;;;5094693;28;20084;-69
2021/11/30 06:37:08;;;;;;;9.10;4.80;;;;;;;;;;5094429;28;20020;-69
2021/11/30 06:39:35;;;;;;;8.93;4.05;;;;;;;;;;5095144;28;20024;-69
2021/11/30 06:42:01;;;;;;;10.18;4.82;;;;;;;;;;5094474;28;20392;-69
2021/11/30 06:44:28;;;;;;;12.95;7.07;;;;;;;;;;5093039;28;20024;-68
2021/11/30 06:46:56;;;;;;;11.18;6.28;;;;;;;;;;5096703;28;20032;-69
2021/11/30 06:49:22;;;;;;;13.15;6.70;;;;;;;;;;5092433;28;20115;-69
2021/11/30 06:51:49;;;;;;;13.45;7.15;;;;;;;;;;5094149;28;20050;-70
2021/11/30 06:54:15;;;;;;;19.55;10.15;;;;;;;;;;5094274;28;20027;-68
2021/11/30 06:56:41;;;;;;;12.25;7.05;;;;;;;;;;5093994;28;20027;-69
2021/11/30 06:59:07;;;;;;;17.15;8.82;;;;;;;;;;5094299;28;20058;-69
2021/11/30 07:01:35;;;;;;;18.58;12.00;;;;;;;;;;5093643;28;20444;-68
2021/11/30 07:04:03;;;;;;;24.45;13.45;;;;;;;;;;5092968;28;20027;-68
2021/11/30 07:06:59;;;;;;;15.82;10.10;;;;;;;;;;5093649;28;20039;-68
2021/11/30 07:12:08;;;;;;;10.73;6.03;;;;;;;;;;5091500;28;20053;-70
2021/11/30 07:14:34;;;;;;;;;;;;;;;;;;5091814;28;20044;-70
2021/11/30 07:17:00;;;;;;;13.05;7.38;;;;;;;;;;5094013;28;19911;-70
2021/11/30 07:19:29;;;;;;;10.32;6.15;;;;;;;;;;5093259;28;20035;-70
2021/11/30 07:21:55;;;;;;;10.05;6.18;;;;;;;;;;5093832;28;20031;-69
2021/11/30 07:24:22;;;;;;;8.02;4.70;;;;;;;;;;5093706;28;20024;-69
2021/11/30 07:26:48;;;;;;;10.57;5.55;;;;;;;;;;5093843;28;20069;-69
2021/11/30 07:29:14;;;;;;;10.02;6.97;;;;;;;;;;5093759;28;20039;-69
2021/11/30 07:31:43;;;;;;;12.50;7.70;;;;;;;;;;5092957;28;20016;-69
2021/11/30 07:34:09;;;;;;;14.60;8.55;;;;;;;;;;5091357;28;20046;-71
2021/11/30 07:36:36;;;;;;;16.23;8.23;;;;;;;;;;5084984;28;20035;-69
2021/11/30 07:39:03;;;;;;;12.95;7.53;;;;;;;;;;5101849;28;20363;-69
2021/11/30 07:41:30;;;;;;;14.52;8.95;;;;;;;;;;5112280;28;20027;-66
2021/11/30 07:43:56;;;;;;;12.02;7.72;;;;;;;;;;5113116;28;20128;-70
2021/11/30 07:46:23;;;;;;;12.77;7.80;;;;;;;;;;5112990;28;20028;-71
2021/11/30 07:48:49;;;;;;;12.05;7.18;;;;;;;;;;5112804;28;20068;-71
2021/11/30 07:51:16;;;;;;;14.38;9.18;;;;;;;;;;5113492;28;20022;-72
2021/11/30 07:53:44;;;;;;;11.90;6.82;;;;;;;;;;5113010;28;20015;-72
2021/11/30 07:56:10;;;;;;;13.00;7.32;;;;;;;;;;5112474;28;20035;-71
2021/11/30 07:58:37;;;;;;;10.30;5.95;;;;;;;;;;5112206;28;20490;-72
2021/11/30 08:01:03;;;;;;;12.60;6.75;;;;;;;;;;5092679;28;20042;-72
2021/11/30 08:03:30;;;;;;;11.35;5.85;;;;;;;;;;5090472;28;20127;-72
2021/11/30 08:05:56;;;;;;;14.57;7.30;;;;;;;;;;5091704;28;20028;-72
2021/11/30 08:08:22;;;;;;;14.05;6.82;;;;;;;;;;5091884;28;20484;-72
2021/11/30 08:10:49;;;;;;;11.45;5.38;;;;;;;;;;5093597;28;20031;-72
2021/11/30 08:13:18;;;;;;;14.82;7.32;;;;;;;;;;5094066;28;20344;-72
2021/11/30 08:15:44;;;;;;;13.02;7.32;;;;;;;;;;5091701;28;20103;-71
2021/11/30 08:18:10;;;;;;;15.48;7.20;;;;;;;;;;5090396;28;20108;-73
2021/11/30 08:20:36;;;;;;;11.55;6.60;;;;;;;;;;5090786;28;20495;-75
2021/11/30 08:23:04;;;;;;;17.85;7.35;;;;;;;;;;5090108;28;20043;-71
2021/11/30 08:25:30;;;;;;;11.73;6.25;;;;;;;;;;5089614;28;20095;-72
2021/11/30 08:27:56;;;;;;;10.73;6.30;;;;;;;;;;5088645;28;20028;-70
2021/11/30 08:30:23;;;;;;;17.35;9.73;;;;;;;;;;5091168;28;20047;-69
2021/11/30 08:32:49;;;;;;;21.45;9.00;;;;;;;;;;5091279;28;20031;-69
2021/11/30 08:35:15;;;;;;;18.10;10.23;;;;;;;;;;5091800;28;20091;-69
2021/11/30 08:37:41;;;;;;;15.27;7.60;;;;;;;;;;5091568;28;20376;-70
2021/11/30 08:40:10;;;;;;;16.30;7.13;;;;;;;;;;5092650;28;20131;-69
2021/11/30 08:42:36;;;;;;;12.23;6.30;;;;;;;;;;5092333;28;20035;-69
2021/11/30 08:45:03;;;;;;;10.73;5.82;;;;;;;;;;5091322;28;20427;-68
2021/11/30 08:47:29;;;;;;;10.38;6.10;;;;;;;;;;5095393;28;20079;-69
2021/11/30 08:49:56;;;;;;;17.73;9.57;;;;;;;;;;5096031;28;20087;-70
2021/11/30 08:52:26;;;;;;;17.45;7.93;;;;;;;;;;5095089;28;20460;-70
2021/11/30 08:54:54;;;;;;;15.52;8.45;;;;;;;;;;5095394;28;20024;-69
2021/11/30 08:57:20;;;;;;;13.68;6.65;;;;;;;;;;5096335;28;20046;-72
2021/11/30 08:59:46;;;;;;;13.43;7.28;;;;;;;;;;5094665;28;20470;-68
2021/11/30 09:02:15;;;;;;;11.43;6.07;;;;;;;;;;5095328;28;20109;-69
2021/11/30 09:04:44;;;;;;;10.43;5.10;;;;;;;;;;5093258;28;20080;-68
2021/11/30 09:07:11;;;;;;;11.73;6.90;;;;;;;;;;5094124;28;20023;-71
2021/11/30 09:09:37;;;;;;;12.13;6.70;;;;;;;;;;5093841;28;20028;-69
2021/11/30 09:12:04;;;;;;;19.00;9.85;;;;;;;;;;5093343;28;20020;-68
2021/11/30 09:14:30;;;;;;;13.35;6.93;;;;;;;;;;5094732;28;20031;-68
2021/11/30 09:16:57;;;;;;;12.35;6.18;;;;;;;;;;5094306;28;20976;-68
2021/11/30 09:19:23;;;;;;;12.35;7.10;;;;;;;;;;5096024;28;20052;-69
2021/11/30 09:21:49;;;;;;;10.88;5.40;;;;;;;;;;5094488;28;20039;-70
2021/11/30 09:24:16;;;;;;;15.88;7.57;;;;;;;;;;5095854;28;20097;-69
2021/11/30 09:26:42;;;;;;;11.48;6.18;;;;;;;;;;5096289;28;20051;-69
2021/11/30 09:29:09;;;;;;;8.70;4.93;;;;;;;;;;5095965;28;20031;-69
2021/11/30 09:31:35;;;;;;;8.57;4.75;;;;;;;;;;5095713;28;20048;-69
2021/11/30 09:34:03;;;;;;;9.80;4.85;;;;;;;;;;5095803;28;20024;-70
2021/11/30 09:36:31;;;;;;;15.23;5.57;;;;;;;;;;5095862;28;20023;-69
2021/11/30 09:38:58;;;;;;;11.18;5.95;;;;;;;;;;5094077;28;20031;-71
2021/11/30 09:41:24;;;;;;;12.60;6.90;;;;;;;;;;5094857;28;20020;-70
2021/11/30 09:43:51;;;;;;;11.93;5.97;;;;;;;;;;5093142;28;20043;-70
2021/11/30 09:46:17;;;;;;;15.63;9.65;;;;;;;;;;5093550;28;20490;-68
2021/11/30 09:48:44;;;;;;;12.57;6.03;;;;;;;;;;5096020;28;20441;-70
2021/11/30 09:51:10;;;;;;;12.20;7.28;;;;;;;;;;5094990;28;20310;-69
2021/11/30 09:53:36;;;;;;;9.98;5.28;;;;;;;;;;5093977;28;20519;-69
2021/11/30 09:56:03;;;;;;;12.82;6.10;;;;;;;;;;5097119;28;20544;-69
2021/11/30 09:58:30;;;;;;;11.23;6.30;;;;;;;;;;5095211;28;20527;-69
2021/11/30 10:00:57;;;;;;;11.55;5.10;;;;;;;;;;5094762;28;20388;-68
2021/11/30 10:03:24;;;;;;;15.55;8.55;;;;;;;;;;5094974;28;20050;-69
2021/11/30 10:05:51;;;;;;;15.43;8.57;;;;;;;;;;5093175;28;20460;-69
2021/11/30 10:08:25;;;;;;;18.70;10.07;;;;;;;;;;5093478;28;20036;-71
2021/11/30 10:10:51;;;;;;;19.40;8.88;;;;;;;;;;5084686;28;20065;-69
2021/11/30 10:13:17;;;;;;;16.30;8.00;;;;;;;;;;5095787;28;20099;-71
2021/11/30 10:15:47;;;;;;;11.75;6.40;;;;;;;;;;5108385;28;20069;-70
2021/11/30 10:18:16;;;;;;;19.58;9.77;;;;;;;;;;5093511;28;20046;-69
2021/11/30 10:20:42;;;;;;;16.05;7.90;;;;;;;;;;5091935;28;20087;-74
2021/11/30 10:23:08;;;;;;;18.35;10.93;;;;;;;;;;5090951;28;20116;-73
2021/11/30 10:25:38;;;;;;;17.23;8.80;;;;;;;;;;5093272;28;20024;-72
2021/11/30 10:28:04;;;;;;;20.15;10.98;;;;;;;;;;5091930;28;20527;-73
2021/11/30 10:30:32;;;;;;;20.67;9.18;;;;;;;;;;5092262;28;20030;-73
2021/11/30 10:33:02;;;;;;;18.35;7.72;;;;;;;;;;5091697;28;20028;-73
2021/11/30 10:35:30;;;;;;;17.42;7.80;;;;;;;;;;5091612;28;20031;-73
2021/11/30 10:37:57;;;;;;;14.73;7.78;;;;;;;;;;5090397;28;20488;-72
2021/11/30 10:40:26;;;;;;;20.20;8.93;;;;;;;;;;5091411;28;20028;-72
2021/11/30 10:42:55;;;;;;;16.85;8.38;;;;;;;;;;5092636;28;20024;-72
2021/11/30 10:45:29;;;;;;;10.85;5.70;;;;;;;;;;5094281;28;20020;-72
2021/11/30 10:48:21;;;;;;;12.43;6.38;;;;;;;;;;5093562;28;20020;-74
2021/11/30 10:50:50;;;;;;;11.95;5.78;;;;;;;;;;5091383;28;20441;-73
2021/11/30 10:53:19;;;;;;;12.10;6.30;;;;;;;;;;5094184;28;20040;-72
2021/11/30 10:55:46;;;;;;;8.68;4.60;;;;;;;;;;5080863;28;20016;-72
2021/11/30 10:58:13;;;;;;;10.93;5.30;;;;;;;;;;5091683;28;20047;-71
2021/11/30 11:00:39;;;;;;;11.73;6.07;;;;;;;;;;5093155;28;20059;-71
2021/11/30 11:03:10;;;;;;;10.60;6.50;;;;;;;;;;5092211;28;20094;-71
2021/11/30 11:05:40;;;;;;;12.52;7.28;;;;;;;;;;5093480;28;20020;-72
2021/11/30 11:08:19;;;;;;;8.65;5.18;;;;;;;;;;5092759;28;20032;-72
2021/11/30 11:10:59;;;;;;;12.30;6.75;;;;;;;;;;5092192;28;20061;-71
2021/11/30 11:13:34;;;;;;;14.32;8.30;;;;;;;;;;5093593;28;20392;-74
2021/11/30 11:16:05;;;;;;;13.27;7.97;;;;;;;;;;5093209;28;20016;-72
2021/11/30 11:18:35;;;;;;;10.38;5.65;;;;;;;;;;5091028;28;20025;-73
2021/11/30 11:21:13;;;;;;;17.50;9.70;;;;;;;;;;5092246;28;20133;-73
2021/11/30 11:23:44;;;;;;;14.00;6.95;;;;;;;;;;5089392;28;20032;-74
2021/11/30 11:26:21;;;;;;;13.18;7.82;;;;;;;;;;5089158;28;20020;-74
2021/11/30 11:28:48;;;;;;;20.02;9.23;;;;;;;;;;5090056;28;20024;-73
2021/11/30 11:31:15;;;;;;;19.50;10.18;;;;;;;;;;5088292;28;20472;-73
2021/11/30 11:33:41;;;;;;;19.48;10.10;;;;;;;;;;5090084;28;20032;-74
2021/11/30 11:36:08;;;;;;;17.42;8.32;;;;;;;;;;5089655;28;20443;-73
2021/11/30 11:38:37;;;;;;;22.52;11.32;;;;;;;;;;5091933;28;20024;-73
2021/11/30 11:41:03;;;;;;;19.98;11.45;;;;;;;;;;5092706;28;20464;-73
2021/11/30 11:43:29;;;;;;;18.40;9.70;;;;;;;;;;5091655;28;20036;-71
2021/11/30 11:45:56;;;;;;;14.18;7.25;;;;;;;;;;5091823;28;20027;-72
2021/11/30 11:48:26;;;;;;;9.98;5.70;;;;;;;;;;5092774;28;20030;-70
2021/11/30 11:50:54;;;;;;;17.00;8.68;;;;;;;;;;5091056;28;20020;-72
2021/11/30 11:53:25;;;;;;;12.57;5.32;;;;;;;;;;5091882;28;20065;-73
2021/11/30 11:56:09;;;;;;;10.55;6.05;;;;;;;;;;5092657;28;20032;-72
2021/11/30 11:58:36;;;;;;;9.90;5.72;;;;;;;;;;5086890;28;20447;-72
2021/11/30 12:01:02;;;;;;;11.50;5.68;;;;;;;;;;5092164;28;20024;-72
2021/11/30 12:03:47;;;;;;;10.85;5.85;;;;;;;;;;5091599;28;20547;-71
2021/11/30 12:06:17;;;;;;;14.15;7.72;;;;;;;;;;5092273;28;20076;-72
2021/11/30 12:09:04;;;;;;;14.70;7.35;;;;;;;;;;5091565;28;20026;-73
2021/11/30 12:11:36;;;;;;;22.30;9.68;;;;;;;;;;5091303;28;20020;-72
2021/11/30 12:14:13;;;;;;;17.13;8.80;;;;;;;;;;5092359;28;20336;-72
2021/11/30 12:16:58;;;;;;;16.08;6.97;;;;;;;;;;5091501;28;20387;-72
2021/11/30 12:19:26;;;;;;;16.67;9.43;;;;;;;;;;5093808;28;20021;-72
2021/11/30 12:21:52;;;;;;;11.70;6.40;;;;;;;;;;5082259;28;20111;-72
2021/11/30 12:24:35;;;;;;;11.07;6.35;;;;;;;;;;5074887;28;20098;-72
2021/11/30 12:27:27;;;;;;;15.32;7.72;;;;;;;;;;5075244;28;20377;-73
2021/11/30 12:29:54;;;;;;;14.98;8.95;;;;;;;;;;5055139;28;20064;-73
2021/11/30 12:32:22;;;;;;;19.77;6.25;;;;;;;;;;5095340;28;20536;-72
2021/11/30 12:34:49;;;;;;;10.40;6.32;;;;;;;;;;5094919;28;20111;-72
2021/11/30 12:37:27;;;;;;;13.45;7.65;;;;;;;;;;5092178;28;20100;-72
2021/11/30 12:39:53;;;;;;;17.50;9.38;;;;;;;;;;5096112;28;20129;-72
2021/11/30 12:42:19;;;;;;;11.30;6.65;;;;;;;;;;5093999;28;20036;-73
2021/11/30 12:44:45;;;;;;;11.88;6.82;;;;;;;;;;5095541;28;20027;-73
2021/11/30 12:47:19;;;;;;;14.27;6.30;;;;;;;;;;5089878;28;20024;-72
2021/11/30 12:49:46;;;;;;;14.10;8.07;;;;;;;;;;5094641;28;20020;-71
2021/11/30 12:52:17;;;;;;;15.10;9.27;;;;;;;;;;5091918;28;20024;-72
2021/11/30 12:54:43;;;;;;;13.65;7.70;;;;;;;;;;5094754;28;20028;-73
2021/11/30 12:57:12;;;;;;;12.38;7.47;;;;;;;;;;5094980;28;20040;-72
2021/11/30 12:59:39;;;;;;;12.45;6.78;;;;;;;;;;5074678;28;20021;-72
2021/11/30 13:02:20;;;;;;;12.27;5.88;;;;;;;;;;5071697;28;20485;-72
2021/11/30 13:04:48;;;;;;;16.98;7.93;;;;;;;;;;5088362;28;20140;-73
2021/11/30 13:07:16;;;;;;;11.93;6.43;;;;;;;;;;5092949;28;20387;-72
2021/11/30 13:09:47;;;;;;;9.85;5.03;;;;;;;;;;5093443;28;20036;-72
2021/11/30 13:12:32;;;;;;;12.52;6.97;;;;;;;;;;5095918;28;20047;-73
2021/11/30 13:14:58;;;;;;;8.57;4.72;;;;;;;;;;5092852;28;20372;-74
2021/11/30 13:17:30;;;;;;;9.77;4.13;;;;;;;;;;5093057;28;20024;-73
2021/11/30 13:19:56;;;;;;;10.23;4.93;;;;;;;;;;5090973;28;20020;-73
2021/11/30 13:22:23;;;;;;;13.45;7.70;;;;;;;;;;5095160;28;20349;-73
2021/11/30 13:24:54;;;;;;;11.20;6.25;;;;;;;;;;5095985;28;20020;-73
2021/11/30 13:27:20;;;;;;;10.55;4.38;;;;;;;;;;5094164;28;20077;-73
2021/11/30 13:30:04;;;;;;;12.55;7.63;;;;;;;;;;5090944;28;20020;-73
2021/11/30 13:32:52;;;;;;;14.98;7.07;;;;;;;;;;5093497;28;20028;-73
2021/11/30 13:36:53;;;;;;;9.90;5.63;;;;;;;;;;5108900;27;20442;-73
2021/11/30 13:39:19;;;;;;;12.60;5.85;;;;;;;;;;5107470;28;20016;-72
2021/11/30 13:43:43;;;;;;;14.85;7.63;;;;;;;;;;5131421;27;20470;-72
2021/11/30 13:46:30;;;;;;;12.90;7.47;;;;;;;;;;5110380;27;20393;-73
2021/11/30 13:48:59;;;;;;;16.63;8.98;;;;;;;;;;5111055;28;20028;-75
2021/11/30 13:51:59;;;;;;;28.08;15.43;;;;;;;;;;5110684;27;20389;-74
2021/11/30 13:54:25;;;;;;;13.95;8.95;;;;;;;;;;5099706;28;20356;-72
2021/11/30 13:56:59;;;;;;;18.25;10.90;;;;;;;;;;5084995;28;20016;-72
2021/11/30 14:00:19;;;;;;;18.20;10.07;;;;;;;;;;5108907;27;20451;-71
2021/11/30 14:03:05;;;;;;;12.85;7.65;;;;;;;;;;5108880;27;21037;-73
2021/11/30 14:06:28;;;;;;;13.68;7.93;;;;;;;;;;5105114;27;20442;-74
2021/11/30 14:08:57;;;;;;;12.88;8.73;;;;;;;;;;5110605;28;20024;-73
2021/11/30 14:12:22;;;;;;;14.70;8.15;;;;;;;;;;5110222;27;20872;-73
2021/11/30 14:14:50;;;;;;;14.13;6.90;;;;;;;;;;5110811;28;20023;-73
2021/11/30 14:17:18;;;;;;;15.80;8.85;;;;;;;;;;5108128;28;20407;-74
2021/11/30 14:19:45;;;;;;;10.77;6.50;;;;;;;;;;5091804;28;20051;-73
2021/11/30 14:23:45;;;;;;;14.00;9.65;;;;;;;;;;5111229;27;20388;-73
2021/11/30 14:26:22;;;;;;;14.10;8.88;;;;;;;;;;5109627;28;20357;-73
2021/11/30 14:28:59;;;;;;;13.77;7.95;;;;;;;;;;5110924;28;20091;-74
2021/11/30 14:31:26;;;;;;;18.30;10.40;;;;;;;;;;5110379;28;20080;-73
2021/11/30 14:33:52;;;;;;;16.70;9.45;;;;;;;;;;5110565;28;20030;-73
2021/11/30 14:36:24;;;;;;;15.73;8.50;;;;;;;;;;5108147;28;20077;-73
2021/11/30 14:38:51;;;;;;;18.63;10.90;;;;;;;;;;5106852;28;20016;-72
2021/11/30 14:41:18;;;;;;;23.70;12.98;;;;;;;;;;5109126;28;20270;-72
2021/11/30 14:43:44;;;;;;;21.05;12.00;;;;;;;;;;5110586;28;20035;-72
2021/11/30 14:46:12;;;;;;;19.40;10.75;;;;;;;;;;5110293;28;20016;-72
2021/11/30 14:48:39;;;;;;;20.95;12.13;;;;;;;;;;5110224;28;20563;-72
2021/11/30 14:51:05;;;;;;;21.25;11.45;;;;;;;;;;5110495;28;20032;-73
2021/11/30 14:53:36;;;;;;;19.42;11.70;;;;;;;;;;5106684;28;20023;-72
2021/11/30 14:56:14;;;;;;;18.92;11.02;;;;;;;;;;5110078;28;20068;-72
2021/11/30 14:58:42;;;;;;;26.98;14.75;;;;;;;;;;5110661;28;20024;-72
2021/11/30 15:01:16;;;;;;;28.77;15.20;;;;;;;;;;5110371;28;20072;-72
2021/11/30 15:03:45;;;;;;;38.80;19.73;;;;;;;;;;5110340;28;20365;-72